createdAt,value
2023-05-09T00:05:22.851Z,87.30
2023-05-09T00:22:27.518Z,85.70
2023-05-09T00:25:53.642Z,85.40
2023-05-09T00:56:32.647Z,83.80
2023-05-09T01:21:04.624Z,84.60
2023-05-09T01:45:33.845Z,86.00
2023-05-09T01:52:27.324Z,85.70
2023-05-09T02:12:58.459Z,84.90
2023-05-09T02:26:37.462Z,85.80
2023-05-09T03:24:46.920Z,86.40
2023-05-09T03:31:36.318Z,86.30
2023-05-09T04:16:08.708Z,86.70
2023-05-09T04:57:20.689Z,89.00
2023-05-09T05:48:47.797Z,90.60
2023-05-09T06:09:14.976Z,90.80
2023-05-09T06:12:38.647Z,91.70
2023-05-09T06:23:11.411Z,96.60
2023-05-09T08:08:45.428Z,80.30
2023-05-09T08:12:09.600Z,79.90
2023-05-09T08:15:33.178Z,80.50
2023-05-09T08:22:21.833Z,76.90
2023-05-09T08:56:28.173Z,76.60
2023-05-09T09:17:01.897Z,66.20
2023-05-09T09:30:49.578Z,66.70
2023-05-09T09:47:55.977Z,74.90
2023-05-09T09:54:44.663Z,77.90
2023-05-09T10:33:11.710Z,73.80
2023-05-09T11:04:12.622Z,71.20
2023-05-09T11:18:11.076Z,69.80
2023-05-09T11:32:08.455Z,71.60
2023-05-09T11:39:06.350Z,72.60
2023-05-09T11:42:30.946Z,75.20
2023-05-09T11:49:20.651Z,73.10
2023-05-09T12:20:11.764Z,67.60
2023-05-09T12:23:37.470Z,68.10
2023-05-09T12:27:01.393Z,66.90
2023-05-09T12:30:24.949Z,68.80
2023-05-09T12:33:48.545Z,68.20
2023-05-09T12:37:17.303Z,67.70
2023-05-09T12:40:42.844Z,66.00
2023-05-09T12:44:07.223Z,65.60
2023-05-09T12:47:32.989Z,66.30
2023-05-09T12:50:56.507Z,65.90
2023-05-09T12:54:24.315Z,66.20
2023-05-09T12:58:02.432Z,65.70
2023-05-09T13:01:31.075Z,64.50
2023-05-09T13:05:08.978Z,65.20
2023-05-09T13:08:33.308Z,63.00
2023-05-09T13:11:56.858Z,66.30
2023-05-09T13:15:24.071Z,66.60
2023-05-09T13:18:47.688Z,65.00
2023-05-09T13:22:12.474Z,65.60
2023-05-09T13:25:36.322Z,64.80
2023-05-09T13:28:59.947Z,65.20
2023-05-09T13:32:25.717Z,64.50
2023-05-09T13:35:49.307Z,63.70
2023-05-09T13:39:13.460Z,64.10
2023-05-09T13:42:37.138Z,64.00
2023-05-09T13:46:00.742Z,64.20
2023-05-09T13:49:25.911Z,65.20
2023-05-09T13:52:49.986Z,64.50
2023-05-09T13:56:13.851Z,64.80
2023-05-09T13:59:37.943Z,65.40
2023-05-09T14:03:03.568Z,65.50
2023-05-09T14:06:28.955Z,65.60
2023-05-09T14:09:58.738Z,65.70
2023-05-09T14:13:32.192Z,65.70
2023-05-09T14:16:55.777Z,64.70
2023-05-09T14:20:19.238Z,65.10
2023-05-09T14:23:44.784Z,64.90
2023-05-09T14:27:08.379Z,64.50
2023-05-09T14:30:31.928Z,64.70
2023-05-09T14:33:55.469Z,64.90
2023-05-09T14:37:19.044Z,63.10
2023-05-09T14:40:43.978Z,64.10
2023-05-09T14:44:08.646Z,64.00
2023-05-09T14:47:32.280Z,64.30
2023-05-09T14:50:56.976Z,64.30
2023-05-09T14:54:20.590Z,63.90
2023-05-09T14:57:45.521Z,63.60
2023-05-09T15:01:09.047Z,63.20
2023-05-09T15:04:32.738Z,64.20
2023-05-09T15:07:56.391Z,65.00
2023-05-09T15:11:19.919Z,65.80
2023-05-09T15:14:44.748Z,66.50
2023-05-09T15:18:10.231Z,66.90
2023-05-09T15:21:34.929Z,67.30
2023-05-09T15:24:58.554Z,67.50
2023-05-09T15:28:22.055Z,67.10
2023-05-09T15:31:46.855Z,66.80
2023-05-09T15:35:10.910Z,66.70
2023-05-09T15:38:35.667Z,67.00
2023-05-09T15:41:59.472Z,67.20
2023-05-09T15:45:22.943Z,67.50
2023-05-09T15:48:47.949Z,67.60
2023-05-09T15:52:11.776Z,67.30
2023-05-09T15:55:35.581Z,67.80
2023-05-09T15:58:59.794Z,67.80
2023-05-09T16:02:23.821Z,67.60
2023-05-09T16:05:49.010Z,67.90
2023-05-09T16:09:13.469Z,67.70
2023-05-09T16:12:36.998Z,67.90
2023-05-09T16:16:01.415Z,67.90
2023-05-09T16:19:24.972Z,68.00
2023-05-09T16:22:50.185Z,67.80
2023-05-09T16:26:13.696Z,67.70
2023-05-09T16:29:37.236Z,68.00
2023-05-09T16:33:00.884Z,68.20
2023-05-09T16:36:24.553Z,68.50
2023-05-09T16:39:49.806Z,69.70
2023-05-09T16:43:13.354Z,69.00
2023-05-09T16:46:36.962Z,69.40
2023-05-09T16:50:00.630Z,69.70
2023-05-09T16:53:25.405Z,69.70
2023-05-09T16:56:51.924Z,69.70
2023-05-09T17:00:16.984Z,69.40
2023-05-09T17:03:40.708Z,69.60
2023-05-09T17:07:04.153Z,69.40
2023-05-09T17:10:27.714Z,69.50
2023-05-09T17:13:52.629Z,69.10
2023-05-09T17:17:17.597Z,69.10
2023-05-09T17:20:41.394Z,69.40
2023-05-09T17:24:05.500Z,69.60
2023-05-09T17:27:29.098Z,69.80
2023-05-09T17:30:54.022Z,69.90
2023-05-09T17:34:17.702Z,70.00
2023-05-09T17:37:41.250Z,70.10
2023-05-09T17:41:05.728Z,69.40
2023-05-09T17:44:29.864Z,69.50
2023-05-09T17:47:54.893Z,70.20
2023-05-09T17:51:18.598Z,71.30
2023-05-09T17:54:42.147Z,71.70
2023-05-09T17:58:06.841Z,72.20
2023-05-09T18:01:30.871Z,72.90
2023-05-09T18:04:55.902Z,73.70
2023-05-09T18:08:19.447Z,74.40
2023-05-09T18:11:42.973Z,75.40
2023-05-09T18:15:08.820Z,75.90
2023-05-09T18:18:32.429Z,76.20
2023-05-09T18:21:57.558Z,76.90
2023-05-09T18:25:21.448Z,77.40
2023-05-09T18:28:45.368Z,77.90
2023-05-09T18:32:08.955Z,78.10
2023-05-09T18:35:32.788Z,78.40
2023-05-09T18:38:57.708Z,78.80
2023-05-09T18:42:21.170Z,78.70
2023-05-09T18:45:47.915Z,79.10
2023-05-09T18:49:11.456Z,79.50
2023-05-09T18:52:35.264Z,79.80
2023-05-09T18:56:00.538Z,80.00
2023-05-09T18:59:25.172Z,80.10
2023-05-09T19:02:48.741Z,80.50
2023-05-09T19:06:13.715Z,80.70
2023-05-09T19:09:37.723Z,80.90
2023-05-09T19:13:02.647Z,80.80
2023-05-09T19:16:26.568Z,80.80
2023-05-09T19:19:50.540Z,81.10
2023-05-09T19:23:13.993Z,80.50
2023-05-09T19:26:37.513Z,80.40
2023-05-09T19:30:02.490Z,80.50
2023-05-09T19:33:26.479Z,80.60
2023-05-09T19:36:50.157Z,80.90
2023-05-09T19:40:14.294Z,81.30
2023-05-09T19:43:38.139Z,81.50
2023-05-09T19:47:05.257Z,81.70
2023-05-09T19:50:30.212Z,81.80
2023-05-09T19:53:53.874Z,81.90
2023-05-09T19:57:17.711Z,81.70
2023-05-09T20:00:41.176Z,81.50
2023-05-09T20:04:07.411Z,81.40
2023-05-09T20:07:31.113Z,82.10
2023-05-09T20:10:55.213Z,81.10
2023-05-09T20:14:18.748Z,81.20
2023-05-09T20:17:42.260Z,81.60
2023-05-09T20:21:09.689Z,82.10
2023-05-09T20:24:33.390Z,82.50
2023-05-09T20:27:56.936Z,82.90
2023-05-09T20:31:20.436Z,82.60
2023-05-09T20:34:43.999Z,82.60
2023-05-09T20:38:08.882Z,82.60
2023-05-09T20:41:34.758Z,82.40
2023-05-09T20:44:58.466Z,82.60
2023-05-09T20:48:23.576Z,82.60
2023-05-09T20:51:47.083Z,82.90
2023-05-09T20:55:12.137Z,83.10
2023-05-09T20:58:35.964Z,83.10
2023-05-09T21:01:59.529Z,84.00
2023-05-09T21:05:23.134Z,83.30
2023-05-09T21:08:47.691Z,83.90
2023-05-09T21:12:12.771Z,83.60
2023-05-09T21:15:36.293Z,83.90
2023-05-09T21:19:02.527Z,84.00
2023-05-09T21:22:26.103Z,84.10
2023-05-09T21:25:49.532Z,83.70
2023-05-09T21:29:15.395Z,84.10
2023-05-09T21:32:38.946Z,83.90
2023-05-09T21:36:02.632Z,84.20
2023-05-09T21:39:26.188Z,84.80
2023-05-09T21:42:49.696Z,85.50
2023-05-09T21:46:14.790Z,85.80
2023-05-09T21:49:39.486Z,85.70
2023-05-09T21:53:03.661Z,86.00
2023-05-09T21:56:27.201Z,86.50
2023-05-09T21:59:50.792Z,86.70
2023-05-09T22:03:15.853Z,87.00
2023-05-09T22:06:41.623Z,86.70
2023-05-09T22:10:07.023Z,87.20
2023-05-09T22:13:30.680Z,88.10
2023-05-09T22:16:54.265Z,88.00
2023-05-09T22:20:19.359Z,88.20
2023-05-09T22:23:43.108Z,88.50
2023-05-09T22:27:06.896Z,88.90
2023-05-09T22:30:31.438Z,88.90
2023-05-09T22:33:54.915Z,88.70
2023-05-09T22:37:20.229Z,88.70
2023-05-09T22:40:44.669Z,88.80
2023-05-09T22:44:08.285Z,89.30
2023-05-09T22:47:31.786Z,89.70
2023-05-09T22:50:55.285Z,89.80
2023-05-09T22:54:21.383Z,90.10
2023-05-09T22:57:44.889Z,90.10
2023-05-09T23:01:08.401Z,90.30
2023-05-09T23:04:31.950Z,90.30
2023-05-09T23:07:55.970Z,90.40
2023-05-09T23:11:22.008Z,90.10
2023-05-09T23:14:45.602Z,90.20
2023-05-09T23:18:09.155Z,90.20
2023-05-09T23:21:32.794Z,90.50
2023-05-09T23:24:56.254Z,90.00
2023-05-09T23:28:24.943Z,89.30
2023-05-09T23:31:48.520Z,88.70
2023-05-09T23:35:12.140Z,88.80
2023-05-09T23:38:35.706Z,88.80
2023-05-09T23:41:59.409Z,89.20
2023-05-09T23:45:24.378Z,89.30
2023-05-09T23:48:47.885Z,88.60
2023-05-09T23:52:11.454Z,88.80
2023-05-09T23:55:34.994Z,89.10
2023-05-09T23:58:58.476Z,89.20
